sensor_id;sensor_type;location;lat;lon;timestamp;temperature;humidity
84176;DHT22;74306;40.114;18.304;2024-03-25T00:00:23;16.00;65.40
84176;DHT22;74306;40.114;18.304;2024-03-25T00:02:52;16.00;65.40
84176;DHT22;74306;40.114;18.304;2024-03-25T00:05:20;16.00;65.40
84176;DHT22;74306;40.114;18.304;2024-03-25T00:07:52;16.10;65.50
84176;DHT22;74306;40.114;18.304;2024-03-25T00:10:19;16.00;65.40
84176;DHT22;74306;40.114;18.304;2024-03-25T00:12:48;15.80;65.50
84176;DHT22;74306;40.114;18.304;2024-03-25T00:15:19;15.80;65.80
84176;DHT22;74306;40.114;18.304;2024-03-25T00:17:47;15.80;66.00
84176;DHT22;74306;40.114;18.304;2024-03-25T00:20:15;15.70;66.30
84176;DHT22;74306;40.114;18.304;2024-03-25T00:22:44;15.50;67.00
84176;DHT22;74306;40.114;18.304;2024-03-25T00:25:11;15.40;67.30
84176;DHT22;74306;40.114;18.304;2024-03-25T00:27:40;15.60;67.00
84176;DHT22;74306;40.114;18.304;2024-03-25T00:30:08;15.70;66.90
84176;DHT22;74306;40.114;18.304;2024-03-25T00:32:36;15.50;67.10
84176;DHT22;74306;40.114;18.304;2024-03-25T00:35:04;15.40;67.30
84176;DHT22;74306;40.114;18.304;2024-03-25T00:37:33;15.30;67.90
84176;DHT22;74306;40.114;18.304;2024-03-25T00:40:01;15.30;68.20
84176;DHT22;74306;40.114;18.304;2024-03-25T00:42:30;15.40;67.90
84176;DHT22;74306;40.114;18.304;2024-03-25T00:44:58;15.50;67.40
84176;DHT22;74306;40.114;18.304;2024-03-25T00:47:26;15.50;67.50
84176;DHT22;74306;40.114;18.304;2024-03-25T00:49:54;15.60;67.30
84176;DHT22;74306;40.114;18.304;2024-03-25T00:52:22;15.60;67.40
84176;DHT22;74306;40.114;18.304;2024-03-25T00:54:49;15.50;67.60
84176;DHT22;74306;40.114;18.304;2024-03-25T00:57:19;15.50;67.80
84176;DHT22;74306;40.114;18.304;2024-03-25T00:59:46;15.50;67.60
84176;DHT22;74306;40.114;18.304;2024-03-25T01:02:14;15.50;67.50
84176;DHT22;74306;40.114;18.304;2024-03-25T01:04:41;15.40;67.70
84176;DHT22;74306;40.114;18.304;2024-03-25T01:07:09;15.30;67.90
84176;DHT22;74306;40.114;18.304;2024-03-25T01:09:37;15.30;68.20
84176;DHT22;74306;40.114;18.304;2024-03-25T01:12:05;15.30;68.40
84176;DHT22;74306;40.114;18.304;2024-03-25T01:14:34;15.20;68.40
84176;DHT22;74306;40.114;18.304;2024-03-25T01:17:03;15.20;68.70
84176;DHT22;74306;40.114;18.304;2024-03-25T01:19:30;15.20;68.80
84176;DHT22;74306;40.114;18.304;2024-03-25T01:21:59;15.20;69.20
84176;DHT22;74306;40.114;18.304;2024-03-25T01:24:26;15.20;69.30
84176;DHT22;74306;40.114;18.304;2024-03-25T01:26:54;15.10;70.00
84176;DHT22;74306;40.114;18.304;2024-03-25T01:29:21;15.00;70.40
84176;DHT22;74306;40.114;18.304;2024-03-25T01:31:51;15.10;70.90
84176;DHT22;74306;40.114;18.304;2024-03-25T01:34:18;15.10;71.30
84176;DHT22;74306;40.114;18.304;2024-03-25T01:36:46;15.20;71.00
84176;DHT22;74306;40.114;18.304;2024-03-25T01:39:13;15.30;70.90
84176;DHT22;74306;40.114;18.304;2024-03-25T01:41:42;15.20;71.00
84176;DHT22;74306;40.114;18.304;2024-03-25T01:44:09;15.30;71.00
84176;DHT22;74306;40.114;18.304;2024-03-25T01:46:38;15.30;71.20
84176;DHT22;74306;40.114;18.304;2024-03-25T01:49:07;15.20;71.10
84176;DHT22;74306;40.114;18.304;2024-03-25T01:51:36;15.20;71.40
84176;DHT22;74306;40.114;18.304;2024-03-25T01:54:06;15.30;71.20
84176;DHT22;74306;40.114;18.304;2024-03-25T01:56:35;15.30;71.10
84176;DHT22;74306;40.114;18.304;2024-03-25T01:59:03;15.30;71.30
84176;DHT22;74306;40.114;18.304;2024-03-25T02:01:32;15.40;70.90
84176;DHT22;74306;40.114;18.304;2024-03-25T02:03:59;15.40;71.00
84176;DHT22;74306;40.114;18.304;2024-03-25T02:06:30;15.40;71.00
84176;DHT22;74306;40.114;18.304;2024-03-25T02:08:59;15.30;71.50
84176;DHT22;74306;40.114;18.304;2024-03-25T02:11:28;15.30;71.50
84176;DHT22;74306;40.114;18.304;2024-03-25T02:13:55;15.30;71.00
84176;DHT22;74306;40.114;18.304;2024-03-25T02:16:23;15.20;71.20
84176;DHT22;74306;40.114;18.304;2024-03-25T02:18:51;15.10;71.40
84176;DHT22;74306;40.114;18.304;2024-03-25T02:21:19;15.00;71.70
84176;DHT22;74306;40.114;18.304;2024-03-25T02:23:48;14.90;72.50
84176;DHT22;74306;40.114;18.304;2024-03-25T02:26:19;14.80;72.70
84176;DHT22;74306;40.114;18.304;2024-03-25T02:28:46;14.80;72.90
84176;DHT22;74306;40.114;18.304;2024-03-25T02:31:15;14.70;73.00
84176;DHT22;74306;40.114;18.304;2024-03-25T02:33:42;14.60;73.10
84176;DHT22;74306;40.114;18.304;2024-03-25T02:36:10;14.60;73.10
84176;DHT22;74306;40.114;18.304;2024-03-25T02:38:38;14.60;73.20
84176;DHT22;74306;40.114;18.304;2024-03-25T02:41:06;14.60;73.40
84176;DHT22;74306;40.114;18.304;2024-03-25T02:43:35;14.70;72.90
84176;DHT22;74306;40.114;18.304;2024-03-25T02:46:03;14.70;72.70
84176;DHT22;74306;40.114;18.304;2024-03-25T02:48:31;14.70;72.40
84176;DHT22;74306;40.114;18.304;2024-03-25T02:50:59;14.70;72.60
84176;DHT22;74306;40.114;18.304;2024-03-25T02:53:26;14.60;72.40
84176;DHT22;74306;40.114;18.304;2024-03-25T02:55:54;14.50;72.50
84176;DHT22;74306;40.114;18.304;2024-03-25T02:58:21;14.40;72.80
84176;DHT22;74306;40.114;18.304;2024-03-25T03:00:51;14.30;73.20
84176;DHT22;74306;40.114;18.304;2024-03-25T03:03:18;14.30;73.80
84176;DHT22;74306;40.114;18.304;2024-03-25T03:05:46;14.30;73.90
84176;DHT22;74306;40.114;18.304;2024-03-25T03:08:14;14.40;73.60
84176;DHT22;74306;40.114;18.304;2024-03-25T03:10:42;14.50;73.60
84176;DHT22;74306;40.114;18.304;2024-03-25T03:13:09;14.40;73.30
84176;DHT22;74306;40.114;18.304;2024-03-25T03:15:38;14.40;73.40
84176;DHT22;74306;40.114;18.304;2024-03-25T03:18:06;14.60;73.00
84176;DHT22;74306;40.114;18.304;2024-03-25T03:20:35;14.70;72.60
84176;DHT22;74306;40.114;18.304;2024-03-25T03:23:02;14.60;72.20
84176;DHT22;74306;40.114;18.304;2024-03-25T03:25:30;14.50;72.30
84176;DHT22;74306;40.114;18.304;2024-03-25T03:27:57;14.30;72.80
84176;DHT22;74306;40.114;18.304;2024-03-25T03:30:26;14.20;73.40
84176;DHT22;74306;40.114;18.304;2024-03-25T03:32:53;14.10;73.80
84176;DHT22;74306;40.114;18.304;2024-03-25T03:35:22;13.90;74.20
84176;DHT22;74306;40.114;18.304;2024-03-25T03:38:08;13.80;74.60
84176;DHT22;74306;40.114;18.304;2024-03-25T03:40:36;13.80;74.60
84176;DHT22;74306;40.114;18.304;2024-03-25T03:43:04;13.80;74.60
84176;DHT22;74306;40.114;18.304;2024-03-25T03:45:33;13.90;74.70
84176;DHT22;74306;40.114;18.304;2024-03-25T03:48:01;14.00;74.50
84176;DHT22;74306;40.114;18.304;2024-03-25T03:50:30;13.80;74.70
84176;DHT22;74306;40.114;18.304;2024-03-25T03:52:58;13.80;74.60
84176;DHT22;74306;40.114;18.304;2024-03-25T03:55:26;13.90;74.70
84176;DHT22;74306;40.114;18.304;2024-03-25T03:57:53;14.00;74.30
84176;DHT22;74306;40.114;18.304;2024-03-25T04:00:21;14.10;74.20
84176;DHT22;74306;40.114;18.304;2024-03-25T04:02:49;14.20;74.00
84176;DHT22;74306;40.114;18.304;2024-03-25T04:05:17;14.20;73.70
84176;DHT22;74306;40.114;18.304;2024-03-25T04:07:46;14.30;73.60
84176;DHT22;74306;40.114;18.304;2024-03-25T04:10:14;14.40;73.20
84176;DHT22;74306;40.114;18.304;2024-03-25T04:12:42;14.40;73.00
84176;DHT22;74306;40.114;18.304;2024-03-25T04:15:10;14.40;72.80
84176;DHT22;74306;40.114;18.304;2024-03-25T04:17:44;14.30;72.80
84176;DHT22;74306;40.114;18.304;2024-03-25T04:20:13;14.40;72.60
84176;DHT22;74306;40.114;18.304;2024-03-25T04:22:41;14.30;72.20
84176;DHT22;74306;40.114;18.304;2024-03-25T04:25:12;14.30;72.40
84176;DHT22;74306;40.114;18.304;2024-03-25T04:27:39;14.30;72.10
84176;DHT22;74306;40.114;18.304;2024-03-25T04:30:08;14.20;72.10
84176;DHT22;74306;40.114;18.304;2024-03-25T04:32:36;14.20;72.50
84176;DHT22;74306;40.114;18.304;2024-03-25T04:35:05;14.20;72.50
84176;DHT22;74306;40.114;18.304;2024-03-25T04:37:33;14.20;72.20
84176;DHT22;74306;40.114;18.304;2024-03-25T04:40:01;14.20;72.40
84176;DHT22;74306;40.114;18.304;2024-03-25T04:42:30;14.10;72.80
84176;DHT22;74306;40.114;18.304;2024-03-25T04:44:57;13.90;73.50
84176;DHT22;74306;40.114;18.304;2024-03-25T04:47:24;13.80;73.90
84176;DHT22;74306;40.114;18.304;2024-03-25T04:49:52;13.70;74.30
84176;DHT22;74306;40.114;18.304;2024-03-25T04:52:19;13.70;74.80
84176;DHT22;74306;40.114;18.304;2024-03-25T04:54:48;13.80;74.40
84176;DHT22;74306;40.114;18.304;2024-03-25T04:57:15;13.90;74.10
84176;DHT22;74306;40.114;18.304;2024-03-25T04:59:44;13.80;74.10
84176;DHT22;74306;40.114;18.304;2024-03-25T05:02:11;13.80;74.20
84176;DHT22;74306;40.114;18.304;2024-03-25T05:04:39;13.80;74.40
84176;DHT22;74306;40.114;18.304;2024-03-25T05:07:06;13.70;74.70
84176;DHT22;74306;40.114;18.304;2024-03-25T05:09:33;13.80;74.30
84176;DHT22;74306;40.114;18.304;2024-03-25T05:12:00;13.80;74.30
84176;DHT22;74306;40.114;18.304;2024-03-25T05:14:28;13.80;74.50
84176;DHT22;74306;40.114;18.304;2024-03-25T05:16:56;13.90;74.50
84176;DHT22;74306;40.114;18.304;2024-03-25T05:19:24;14.00;74.00
84176;DHT22;74306;40.114;18.304;2024-03-25T05:21:51;14.00;74.00
84176;DHT22;74306;40.114;18.304;2024-03-25T05:24:18;14.00;74.00
84176;DHT22;74306;40.114;18.304;2024-03-25T05:26:45;14.00;74.20
84176;DHT22;74306;40.114;18.304;2024-03-25T05:29:13;13.90;74.40
84176;DHT22;74306;40.114;18.304;2024-03-25T05:31:57;13.80;74.80
84176;DHT22;74306;40.114;18.304;2024-03-25T05:34:25;13.80;75.20
84176;DHT22;74306;40.114;18.304;2024-03-25T05:36:53;13.70;75.30
84176;DHT22;74306;40.114;18.304;2024-03-25T05:39:21;13.80;75.40
84176;DHT22;74306;40.114;18.304;2024-03-25T05:41:49;13.80;75.40
84176;DHT22;74306;40.114;18.304;2024-03-25T05:44:16;13.80;75.40
84176;DHT22;74306;40.114;18.304;2024-03-25T05:46:43;13.80;75.70
84176;DHT22;74306;40.114;18.304;2024-03-25T05:49:12;13.80;75.60
84176;DHT22;74306;40.114;18.304;2024-03-25T05:51:39;13.80;75.60
84176;DHT22;74306;40.114;18.304;2024-03-25T05:54:07;13.90;75.30
84176;DHT22;74306;40.114;18.304;2024-03-25T05:56:34;14.10;74.90
84176;DHT22;74306;40.114;18.304;2024-03-25T05:59:01;14.30;74.50
84176;DHT22;74306;40.114;18.304;2024-03-25T06:01:29;14.20;74.50
84176;DHT22;74306;40.114;18.304;2024-03-25T06:03:56;14.40;74.30
84176;DHT22;74306;40.114;18.304;2024-03-25T06:06:25;14.40;74.20
84176;DHT22;74306;40.114;18.304;2024-03-25T06:08:53;14.50;73.80
84176;DHT22;74306;40.114;18.304;2024-03-25T06:11:20;14.40;74.00
84176;DHT22;74306;40.114;18.304;2024-03-25T06:13:48;14.30;73.80
84176;DHT22;74306;40.114;18.304;2024-03-25T06:16:15;14.40;74.00
84176;DHT22;74306;40.114;18.304;2024-03-25T06:18:43;14.40;74.00
84176;DHT22;74306;40.114;18.304;2024-03-25T06:21:10;14.50;73.80
84176;DHT22;74306;40.114;18.304;2024-03-25T06:23:57;14.80;72.70
84176;DHT22;74306;40.114;18.304;2024-03-25T06:26:25;14.90;72.50
84176;DHT22;74306;40.114;18.304;2024-03-25T06:28:52;15.00;71.90
84176;DHT22;74306;40.114;18.304;2024-03-25T06:31:20;15.00;71.20
84176;DHT22;74306;40.114;18.304;2024-03-25T06:34:05;15.00;70.70
84176;DHT22;74306;40.114;18.304;2024-03-25T06:36:41;15.10;70.10
84176;DHT22;74306;40.114;18.304;2024-03-25T06:39:10;15.30;69.70
84176;DHT22;74306;40.114;18.304;2024-03-25T06:41:38;15.20;69.00
84176;DHT22;74306;40.114;18.304;2024-03-25T06:44:05;15.10;68.70
84176;DHT22;74306;40.114;18.304;2024-03-25T06:46:33;15.10;67.80
84176;DHT22;74306;40.114;18.304;2024-03-25T06:49:00;15.30;67.90
84176;DHT22;74306;40.114;18.304;2024-03-25T06:51:27;15.10;65.90
84176;DHT22;74306;40.114;18.304;2024-03-25T06:53:54;15.30;65.80
84176;DHT22;74306;40.114;18.304;2024-03-25T06:56:23;15.40;65.60
84176;DHT22;74306;40.114;18.304;2024-03-25T06:58:50;15.30;65.30
84176;DHT22;74306;40.114;18.304;2024-03-25T07:01:17;15.30;64.80
84176;DHT22;74306;40.114;18.304;2024-03-25T07:03:45;15.50;64.30
84176;DHT22;74306;40.114;18.304;2024-03-25T07:06:12;15.30;63.20
84176;DHT22;74306;40.114;18.304;2024-03-25T07:08:39;15.50;63.50
84176;DHT22;74306;40.114;18.304;2024-03-25T07:11:06;15.60;62.90
84176;DHT22;74306;40.114;18.304;2024-03-25T07:13:35;15.60;62.80
84176;DHT22;74306;40.114;18.304;2024-03-25T07:16:05;15.60;62.90
84176;DHT22;74306;40.114;18.304;2024-03-25T07:18:32;15.70;62.70
84176;DHT22;74306;40.114;18.304;2024-03-25T07:21:00;15.90;62.80
84176;DHT22;74306;40.114;18.304;2024-03-25T07:23:27;16.00;62.70
84176;DHT22;74306;40.114;18.304;2024-03-25T07:25:54;16.10;62.60
84176;DHT22;74306;40.114;18.304;2024-03-25T07:28:21;16.00;62.70
84176;DHT22;74306;40.114;18.304;2024-03-25T07:30:51;16.00;63.30
84176;DHT22;74306;40.114;18.304;2024-03-25T07:33:19;15.80;63.70
84176;DHT22;74306;40.114;18.304;2024-03-25T07:35:46;15.90;63.90
84176;DHT22;74306;40.114;18.304;2024-03-25T07:38:13;15.90;63.80
84176;DHT22;74306;40.114;18.304;2024-03-25T07:40:40;15.90;64.40
84176;DHT22;74306;40.114;18.304;2024-03-25T07:43:07;16.00;64.10
84176;DHT22;74306;40.114;18.304;2024-03-25T07:45:35;15.70;64.50
84176;DHT22;74306;40.114;18.304;2024-03-25T07:48:04;16.00;64.00
84176;DHT22;74306;40.114;18.304;2024-03-25T07:50:31;16.00;64.00
84176;DHT22;74306;40.114;18.304;2024-03-25T07:52:58;16.10;64.20
84176;DHT22;74306;40.114;18.304;2024-03-25T07:55:26;15.90;63.90
84176;DHT22;74306;40.114;18.304;2024-03-25T07:57:53;15.60;64.40
84176;DHT22;74306;40.114;18.304;2024-03-25T08:00:20;16.00;63.60
84176;DHT22;74306;40.114;18.304;2024-03-25T08:02:48;16.40;61.70
84176;DHT22;74306;40.114;18.304;2024-03-25T08:05:16;16.30;60.80
84176;DHT22;74306;40.114;18.304;2024-03-25T08:07:44;16.40;59.30
84176;DHT22;74306;40.114;18.304;2024-03-25T08:10:11;16.50;58.80
84176;DHT22;74306;40.114;18.304;2024-03-25T08:12:38;16.20;58.20
84176;DHT22;74306;40.114;18.304;2024-03-25T08:15:06;15.80;58.50
84176;DHT22;74306;40.114;18.304;2024-03-25T08:17:33;15.80;58.20
84176;DHT22;74306;40.114;18.304;2024-03-25T08:20:01;16.30;57.00
84176;DHT22;74306;40.114;18.304;2024-03-25T08:22:29;16.50;56.00
84176;DHT22;74306;40.114;18.304;2024-03-25T08:24:56;16.70;55.00
84176;DHT22;74306;40.114;18.304;2024-03-25T08:27:24;16.80;55.20
84176;DHT22;74306;40.114;18.304;2024-03-25T08:29:51;16.80;55.20
84176;DHT22;74306;40.114;18.304;2024-03-25T08:32:19;16.60;54.60
84176;DHT22;74306;40.114;18.304;2024-03-25T08:34:46;16.30;54.40
84176;DHT22;74306;40.114;18.304;2024-03-25T08:37:13;16.60;53.50
84176;DHT22;74306;40.114;18.304;2024-03-25T08:39:42;16.10;53.90
84176;DHT22;74306;40.114;18.304;2024-03-25T08:42:09;16.10;54.10
84176;DHT22;74306;40.114;18.304;2024-03-25T08:44:36;16.50;53.10
84176;DHT22;74306;40.114;18.304;2024-03-25T08:47:04;16.40;53.20
84176;DHT22;74306;40.114;18.304;2024-03-25T08:49:31;16.80;53.00
84176;DHT22;74306;40.114;18.304;2024-03-25T08:51:58;17.40;51.60
84176;DHT22;74306;40.114;18.304;2024-03-25T08:54:25;17.60;50.50
84176;DHT22;74306;40.114;18.304;2024-03-25T08:56:54;17.70;49.90
84176;DHT22;74306;40.114;18.304;2024-03-25T08:59:21;17.50;49.30
84176;DHT22;74306;40.114;18.304;2024-03-25T09:01:48;17.70;49.60
84176;DHT22;74306;40.114;18.304;2024-03-25T09:04:15;17.80;49.20
84176;DHT22;74306;40.114;18.304;2024-03-25T09:06:43;18.20;48.00
84176;DHT22;74306;40.114;18.304;2024-03-25T09:09:10;17.70;50.50
84176;DHT22;74306;40.114;18.304;2024-03-25T09:11:57;17.80;49.70
84176;DHT22;74306;40.114;18.304;2024-03-25T09:14:24;17.90;46.90
84176;DHT22;74306;40.114;18.304;2024-03-25T09:16:51;18.20;46.70
84176;DHT22;74306;40.114;18.304;2024-03-25T09:19:18;18.20;47.20
84176;DHT22;74306;40.114;18.304;2024-03-25T09:21:46;18.10;46.40
84176;DHT22;74306;40.114;18.304;2024-03-25T09:24:13;18.30;45.70
84176;DHT22;74306;40.114;18.304;2024-03-25T09:26:40;18.10;46.40
84176;DHT22;74306;40.114;18.304;2024-03-25T09:29:09;17.60;46.70
84176;DHT22;74306;40.114;18.304;2024-03-25T09:31:36;17.50;45.90
84176;DHT22;74306;40.114;18.304;2024-03-25T09:34:03;17.40;47.00
84176;DHT22;74306;40.114;18.304;2024-03-25T09:36:31;18.10;46.60
84176;DHT22;74306;40.114;18.304;2024-03-25T09:38:58;18.70;45.00
84176;DHT22;74306;40.114;18.304;2024-03-25T09:41:27;18.70;45.30
84176;DHT22;74306;40.114;18.304;2024-03-25T09:43:55;18.50;45.70
84176;DHT22;74306;40.114;18.304;2024-03-25T09:46:24;18.70;46.20
84176;DHT22;74306;40.114;18.304;2024-03-25T09:48:53;18.30;45.40
84176;DHT22;74306;40.114;18.304;2024-03-25T09:51:21;18.00;44.80
84176;DHT22;74306;40.114;18.304;2024-03-25T09:53:48;17.30;47.90
84176;DHT22;74306;40.114;18.304;2024-03-25T09:56:16;18.20;48.20
84176;DHT22;74306;40.114;18.304;2024-03-25T09:58:44;18.90;47.10
84176;DHT22;74306;40.114;18.304;2024-03-25T10:01:11;19.00;47.10
84176;DHT22;74306;40.114;18.304;2024-03-25T10:03:40;18.80;46.30
84176;DHT22;74306;40.114;18.304;2024-03-25T10:06:07;18.40;46.90
84176;DHT22;74306;40.114;18.304;2024-03-25T10:08:35;18.60;46.70
84176;DHT22;74306;40.114;18.304;2024-03-25T10:11:02;18.70;47.10
84176;DHT22;74306;40.114;18.304;2024-03-25T10:13:30;19.50;45.80
84176;DHT22;74306;40.114;18.304;2024-03-25T10:15:57;19.60;45.30
84176;DHT22;74306;40.114;18.304;2024-03-25T10:18:24;20.70;44.20
84176;DHT22;74306;40.114;18.304;2024-03-25T10:20:53;18.80;45.10
84176;DHT22;74306;40.114;18.304;2024-03-25T10:23:21;18.90;45.50
84176;DHT22;74306;40.114;18.304;2024-03-25T10:25:52;20.20;43.30
84176;DHT22;74306;40.114;18.304;2024-03-25T10:28:19;20.10;43.00
84176;DHT22;74306;40.114;18.304;2024-03-25T10:30:47;19.50;45.20
84176;DHT22;74306;40.114;18.304;2024-03-25T10:33:14;19.30;45.40
84176;DHT22;74306;40.114;18.304;2024-03-25T10:35:44;19.50;44.40
84176;DHT22;74306;40.114;18.304;2024-03-25T10:38:14;19.90;43.80
84176;DHT22;74306;40.114;18.304;2024-03-25T10:40:46;19.70;44.10
84176;DHT22;74306;40.114;18.304;2024-03-25T10:43:17;19.70;43.40
84176;DHT22;74306;40.114;18.304;2024-03-25T10:45:46;20.00;42.90
84176;DHT22;74306;40.114;18.304;2024-03-25T10:48:17;22.10;39.60
84176;DHT22;74306;40.114;18.304;2024-03-25T10:50:46;22.30;37.60
84176;DHT22;74306;40.114;18.304;2024-03-25T10:53:18;21.40;39.80
84176;DHT22;74306;40.114;18.304;2024-03-25T10:55:47;21.30;41.00
84176;DHT22;74306;40.114;18.304;2024-03-25T10:58:15;20.90;41.10
84176;DHT22;74306;40.114;18.304;2024-03-25T11:00:43;20.00;41.50
84176;DHT22;74306;40.114;18.304;2024-03-25T11:03:11;21.40;39.60
84176;DHT22;74306;40.114;18.304;2024-03-25T11:05:39;22.70;36.50
84176;DHT22;74306;40.114;18.304;2024-03-25T11:08:11;22.70;35.90
84176;DHT22;74306;40.114;18.304;2024-03-25T11:10:43;23.30;34.40
84176;DHT22;74306;40.114;18.304;2024-03-25T11:13:11;23.80;34.00
84176;DHT22;74306;40.114;18.304;2024-03-25T11:15:41;24.80;32.10
84176;DHT22;74306;40.114;18.304;2024-03-25T11:18:13;24.00;33.70
84176;DHT22;74306;40.114;18.304;2024-03-25T11:20:43;22.40;35.10
84176;DHT22;74306;40.114;18.304;2024-03-25T11:23:11;22.80;35.30
84176;DHT22;74306;40.114;18.304;2024-03-25T11:25:40;24.40;33.30
84176;DHT22;74306;40.114;18.304;2024-03-25T11:28:09;25.60;30.70
84176;DHT22;74306;40.114;18.304;2024-03-25T11:30:37;24.60;32.00
84176;DHT22;74306;40.114;18.304;2024-03-25T11:33:04;22.40;33.70
84176;DHT22;74306;40.114;18.304;2024-03-25T11:35:37;22.60;33.40
84176;DHT22;74306;40.114;18.304;2024-03-25T11:38:04;23.40;32.60
84176;DHT22;74306;40.114;18.304;2024-03-25T11:40:32;25.10;30.00
84176;DHT22;74306;40.114;18.304;2024-03-25T11:42:59;25.70;29.40
84176;DHT22;74306;40.114;18.304;2024-03-25T11:45:28;25.80;30.00
84176;DHT22;74306;40.114;18.304;2024-03-25T11:47:57;26.60;28.80
84176;DHT22;74306;40.114;18.304;2024-03-25T11:50:25;25.80;29.80
84176;DHT22;74306;40.114;18.304;2024-03-25T11:52:52;26.40;29.30
84176;DHT22;74306;40.114;18.304;2024-03-25T11:55:19;27.70;26.80
84176;DHT22;74306;40.114;18.304;2024-03-25T11:57:55;27.60;26.30
84176;DHT22;74306;40.114;18.304;2024-03-25T12:00:24;27.90;25.50
84176;DHT22;74306;40.114;18.304;2024-03-25T12:02:53;25.90;27.50
84176;DHT22;74306;40.114;18.304;2024-03-25T12:05:20;25.00;28.80
84176;DHT22;74306;40.114;18.304;2024-03-25T12:07:48;24.30;31.50
84176;DHT22;74306;40.114;18.304;2024-03-25T12:10:16;24.90;32.40
84176;DHT22;74306;40.114;18.304;2024-03-25T12:13:02;26.60;28.40
84176;DHT22;74306;40.114;18.304;2024-03-25T12:15:29;28.10;25.70
84176;DHT22;74306;40.114;18.304;2024-03-25T12:17:57;29.30;25.30
84176;DHT22;74306;40.114;18.304;2024-03-25T12:20:25;30.10;24.30
84176;DHT22;74306;40.114;18.304;2024-03-25T12:22:53;28.50;25.80
84176;DHT22;74306;40.114;18.304;2024-03-25T12:25:22;27.20;26.10
84176;DHT22;74306;40.114;18.304;2024-03-25T12:27:50;26.30;27.80
84176;DHT22;74306;40.114;18.304;2024-03-25T12:30:19;24.50;29.40
84176;DHT22;74306;40.114;18.304;2024-03-25T12:32:46;26.00;29.40
84176;DHT22;74306;40.114;18.304;2024-03-25T12:35:16;28.30;27.10
84176;DHT22;74306;40.114;18.304;2024-03-25T12:37:46;28.70;25.70
84176;DHT22;74306;40.114;18.304;2024-03-25T12:40:25;28.50;26.00
84176;DHT22;74306;40.114;18.304;2024-03-25T12:42:53;29.40;24.60
84176;DHT22;74306;40.114;18.304;2024-03-25T12:45:20;28.80;24.70
84176;DHT22;74306;40.114;18.304;2024-03-25T12:47:48;28.50;24.00
84176;DHT22;74306;40.114;18.304;2024-03-25T12:50:16;27.80;24.80
84176;DHT22;74306;40.114;18.304;2024-03-25T12:52:43;27.90;25.00
84176;DHT22;74306;40.114;18.304;2024-03-25T12:55:11;28.40;25.10
84176;DHT22;74306;40.114;18.304;2024-03-25T12:57:38;28.40;25.60
84176;DHT22;74306;40.114;18.304;2024-03-25T13:00:06;28.10;25.40
84176;DHT22;74306;40.114;18.304;2024-03-25T13:02:34;27.80;26.00
84176;DHT22;74306;40.114;18.304;2024-03-25T13:05:01;26.90;28.20
84176;DHT22;74306;40.114;18.304;2024-03-25T13:07:32;26.80;28.70
84176;DHT22;74306;40.114;18.304;2024-03-25T13:09:59;26.90;28.60
84176;DHT22;74306;40.114;18.304;2024-03-25T13:12:26;27.10;28.90
84176;DHT22;74306;40.114;18.304;2024-03-25T13:14:54;25.90;31.10
84176;DHT22;74306;40.114;18.304;2024-03-25T13:17:21;24.00;32.80
84176;DHT22;74306;40.114;18.304;2024-03-25T13:19:48;23.90;34.00
84176;DHT22;74306;40.114;18.304;2024-03-25T13:22:15;25.30;34.30
84176;DHT22;74306;40.114;18.304;2024-03-25T13:24:44;26.10;34.90
84176;DHT22;74306;40.114;18.304;2024-03-25T13:27:11;27.30;33.30
84176;DHT22;74306;40.114;18.304;2024-03-25T13:29:39;27.80;31.90
84176;DHT22;74306;40.114;18.304;2024-03-25T13:32:06;26.10;33.80
84176;DHT22;74306;40.114;18.304;2024-03-25T13:34:33;25.30;34.90
84176;DHT22;74306;40.114;18.304;2024-03-25T13:37:00;24.20;36.80
84176;DHT22;74306;40.114;18.304;2024-03-25T13:39:28;24.20;36.90
84176;DHT22;74306;40.114;18.304;2024-03-25T13:41:56;23.30;37.90
84176;DHT22;74306;40.114;18.304;2024-03-25T13:44:23;23.10;38.90
84176;DHT22;74306;40.114;18.304;2024-03-25T13:46:51;23.20;38.90
84176;DHT22;74306;40.114;18.304;2024-03-25T13:49:18;22.50;39.90
84176;DHT22;74306;40.114;18.304;2024-03-25T13:51:45;22.70;39.60
84176;DHT22;74306;40.114;18.304;2024-03-25T13:54:13;22.10;39.20
84176;DHT22;74306;40.114;18.304;2024-03-25T13:56:40;21.80;40.10
84176;DHT22;74306;40.114;18.304;2024-03-25T13:59:09;21.80;40.00
84176;DHT22;74306;40.114;18.304;2024-03-25T14:01:36;22.20;39.60
84176;DHT22;74306;40.114;18.304;2024-03-25T14:04:04;22.20;39.30
84176;DHT22;74306;40.114;18.304;2024-03-25T14:06:31;22.20;39.60
84176;DHT22;74306;40.114;18.304;2024-03-25T14:08:59;22.30;39.20
84176;DHT22;74306;40.114;18.304;2024-03-25T14:11:26;21.50;39.70
84176;DHT22;74306;40.114;18.304;2024-03-25T14:13:53;20.90;40.10
84176;DHT22;74306;40.114;18.304;2024-03-25T14:16:22;20.60;41.80
84176;DHT22;74306;40.114;18.304;2024-03-25T14:18:49;20.80;40.60
84176;DHT22;74306;40.114;18.304;2024-03-25T14:21:16;20.20;40.50
84176;DHT22;74306;40.114;18.304;2024-03-25T14:23:44;20.30;40.50
84176;DHT22;74306;40.114;18.304;2024-03-25T14:26:12;20.60;39.20
84176;DHT22;74306;40.114;18.304;2024-03-25T14:28:41;20.10;40.00
84176;DHT22;74306;40.114;18.304;2024-03-25T14:31:08;20.10;40.40
84176;DHT22;74306;40.114;18.304;2024-03-25T14:33:37;20.10;40.20
84176;DHT22;74306;40.114;18.304;2024-03-25T14:36:05;20.60;39.80
84176;DHT22;74306;40.114;18.304;2024-03-25T14:38:32;20.40;40.50
84176;DHT22;74306;40.114;18.304;2024-03-25T14:40:59;20.30;41.00
84176;DHT22;74306;40.114;18.304;2024-03-25T14:43:26;20.50;41.50
84176;DHT22;74306;40.114;18.304;2024-03-25T14:45:54;20.80;41.40
84176;DHT22;74306;40.114;18.304;2024-03-25T14:48:21;20.30;39.90
84176;DHT22;74306;40.114;18.304;2024-03-25T14:50:50;20.50;38.80
84176;DHT22;74306;40.114;18.304;2024-03-25T14:53:17;20.40;39.40
84176;DHT22;74306;40.114;18.304;2024-03-25T14:55:44;19.90;40.50
84176;DHT22;74306;40.114;18.304;2024-03-25T14:58:12;19.60;41.90
84176;DHT22;74306;40.114;18.304;2024-03-25T15:00:39;19.20;42.50
84176;DHT22;74306;40.114;18.304;2024-03-25T15:03:06;19.70;42.00
84176;DHT22;74306;40.114;18.304;2024-03-25T15:05:33;19.70;41.80
84176;DHT22;74306;40.114;18.304;2024-03-25T15:08:02;19.60;41.70
84176;DHT22;74306;40.114;18.304;2024-03-25T15:10:33;20.00;41.30
84176;DHT22;74306;40.114;18.304;2024-03-25T15:13:01;20.10;41.40
84176;DHT22;74306;40.114;18.304;2024-03-25T15:15:28;19.50;42.40
84176;DHT22;74306;40.114;18.304;2024-03-25T15:17:55;19.50;42.80
84176;DHT22;74306;40.114;18.304;2024-03-25T15:20:23;19.50;42.90